Terminal Aerodrome Forecast
Issued by NWS

Home | Current Version | Previous Version | Text Only | Print | Product List | Glossary On
Versions: 1 2 3 4 5 6 7 8 9 10 11 12 13 14
000
FTAK31 PAJN 281400 AAA
TAFAWG
TAF AMD
PAWG 281425Z 2814/2912 14010KT P6SM -RA BKN040 OVC060 WS020/12030KT
     FM281500 12015G25KT 6SM -RA BR OVC025 WS020/13035KT
     FM281800 12030G40KT 4SM -RA BR BKN015 OVC025 WS020/18060KT
     FM282300 14020G30KT 4SM -SHRA BR BKN025 OVC050 WS020/18035KT
     FM290400 14015G25KT 6SM -SHRA BR BKN025 OVC050
     FM290800 13012KT P6SM -SHRA BKN040 OVC060
      AMD LTD TO CLD VIS AND WIND TIL 281500=

USA.gov is the U.S. government's official web portal to all federal, state and local government web resources and services.